sensor_id;sensor_type;location;lat;lon;timestamp;P1;durP1;ratioP1;P2;durP2;ratioP2
73951;SDS011;62304;47.662;18.324;2022-10-19T00:01:21;19.25;;;10.60;;
73951;SDS011;62304;47.662;18.324;2022-10-19T00:04:25;23.25;;;11.73;;
73951;SDS011;62304;47.662;18.324;2022-10-19T00:07:28;24.70;;;11.70;;
73951;SDS011;62304;47.662;18.324;2022-10-19T00:10:32;22.48;;;12.52;;
73951;SDS011;62304;47.662;18.324;2022-10-19T00:13:35;24.05;;;12.57;;
73951;SDS011;62304;47.662;18.324;2022-10-19T00:16:38;24.67;;;11.60;;
73951;SDS011;62304;47.662;18.324;2022-10-19T00:19:41;22.90;;;12.05;;
73951;SDS011;62304;47.662;18.324;2022-10-19T00:22:44;20.03;;;11.53;;
73951;SDS011;62304;47.662;18.324;2022-10-19T00:25:53;22.13;;;11.68;;
73951;SDS011;62304;47.662;18.324;2022-10-19T00:28:57;19.58;;;11.18;;
73951;SDS011;62304;47.662;18.324;2022-10-19T00:32:00;20.17;;;11.10;;
73951;SDS011;62304;47.662;18.324;2022-10-19T00:35:03;19.60;;;11.73;;
73951;SDS011;62304;47.662;18.324;2022-10-19T00:38:06;22.00;;;11.67;;
73951;SDS011;62304;47.662;18.324;2022-10-19T00:41:09;23.23;;;12.18;;
73951;SDS011;62304;47.662;18.324;2022-10-19T00:47:14;18.55;;;10.85;;
73951;SDS011;62304;47.662;18.324;2022-10-19T00:50:20;23.40;;;11.60;;
73951;SDS011;62304;47.662;18.324;2022-10-19T00:53:23;22.83;;;11.80;;
73951;SDS011;62304;47.662;18.324;2022-10-19T00:56:28;23.00;;;11.90;;
73951;SDS011;62304;47.662;18.324;2022-10-19T00:59:32;23.05;;;11.82;;
73951;SDS011;62304;47.662;18.324;2022-10-19T01:02:36;20.98;;;11.12;;
73951;SDS011;62304;47.662;18.324;2022-10-19T01:05:39;21.25;;;11.32;;
73951;SDS011;62304;47.662;18.324;2022-10-19T01:08:42;19.47;;;11.17;;
73951;SDS011;62304;47.662;18.324;2022-10-19T01:12:06;22.83;;;11.57;;
73951;SDS011;62304;47.662;18.324;2022-10-19T01:18:20;19.05;;;11.20;;
73951;SDS011;62304;47.662;18.324;2022-10-19T01:21:33;20.10;;;11.40;;
73951;SDS011;62304;47.662;18.324;2022-10-19T01:28:17;17.55;;;10.80;;
73951;SDS011;62304;47.662;18.324;2022-10-19T01:31:24;19.40;;;10.48;;
73951;SDS011;62304;47.662;18.324;2022-10-19T01:41:09;18.20;;;10.53;;
73951;SDS011;62304;47.662;18.324;2022-10-19T01:44:24;17.75;;;10.48;;
73951;SDS011;62304;47.662;18.324;2022-10-19T01:47:37;18.27;;;10.60;;
73951;SDS011;62304;47.662;18.324;2022-10-19T01:50:53;20.17;;;11.90;;
73951;SDS011;62304;47.662;18.324;2022-10-19T01:53:56;20.95;;;10.95;;
73951;SDS011;62304;47.662;18.324;2022-10-19T01:57:03;18.40;;;10.70;;
73951;SDS011;62304;47.662;18.324;2022-10-19T02:00:09;22.35;;;11.57;;
73951;SDS011;62304;47.662;18.324;2022-10-19T02:03:14;33.17;;;15.10;;
73951;SDS011;62304;47.662;18.324;2022-10-19T02:06:20;23.27;;;11.90;;
73951;SDS011;62304;47.662;18.324;2022-10-19T02:09:23;21.75;;;11.20;;
73951;SDS011;62304;47.662;18.324;2022-10-19T02:12:27;22.90;;;11.47;;
73951;SDS011;62304;47.662;18.324;2022-10-19T02:15:33;19.55;;;11.18;;
73951;SDS011;62304;47.662;18.324;2022-10-19T02:18:43;19.35;;;10.30;;
73951;SDS011;62304;47.662;18.324;2022-10-19T02:21:50;20.92;;;11.63;;
73951;SDS011;62304;47.662;18.324;2022-10-19T02:24:53;19.75;;;10.88;;
73951;SDS011;62304;47.662;18.324;2022-10-19T02:27:56;22.87;;;12.00;;
73951;SDS011;62304;47.662;18.324;2022-10-19T02:30:59;18.92;;;11.52;;
73951;SDS011;62304;47.662;18.324;2022-10-19T02:34:03;21.92;;;12.68;;
73951;SDS011;62304;47.662;18.324;2022-10-19T02:37:09;23.48;;;12.23;;
73951;SDS011;62304;47.662;18.324;2022-10-19T02:40:11;22.67;;;13.23;;
73951;SDS011;62304;47.662;18.324;2022-10-19T02:43:15;25.50;;;14.07;;
73951;SDS011;62304;47.662;18.324;2022-10-19T02:46:27;23.25;;;12.70;;
73951;SDS011;62304;47.662;18.324;2022-10-19T02:50:05;21.83;;;12.82;;
73951;SDS011;62304;47.662;18.324;2022-10-19T02:53:09;24.17;;;12.80;;
73951;SDS011;62304;47.662;18.324;2022-10-19T02:56:12;24.48;;;13.77;;
73951;SDS011;62304;47.662;18.324;2022-10-19T02:59:17;22.27;;;13.73;;
73951;SDS011;62304;47.662;18.324;2022-10-19T03:02:20;22.37;;;13.77;;
73951;SDS011;62304;47.662;18.324;2022-10-19T03:05:23;26.40;;;15.32;;
73951;SDS011;62304;47.662;18.324;2022-10-19T03:08:26;27.13;;;15.30;;
73951;SDS011;62304;47.662;18.324;2022-10-19T03:11:29;22.25;;;14.13;;
73951;SDS011;62304;47.662;18.324;2022-10-19T03:14:32;26.17;;;14.23;;
73951;SDS011;62304;47.662;18.324;2022-10-19T03:17:36;26.83;;;16.00;;
73951;SDS011;62304;47.662;18.324;2022-10-19T03:20:39;28.38;;;15.50;;
73951;SDS011;62304;47.662;18.324;2022-10-19T03:23:41;27.23;;;16.83;;
73951;SDS011;62304;47.662;18.324;2022-10-19T03:26:44;28.83;;;17.77;;
73951;SDS011;62304;47.662;18.324;2022-10-19T03:29:47;29.47;;;16.03;;
73951;SDS011;62304;47.662;18.324;2022-10-19T03:32:52;29.02;;;15.80;;
73951;SDS011;62304;47.662;18.324;2022-10-19T03:39:29;29.42;;;17.10;;
73951;SDS011;62304;47.662;18.324;2022-10-19T03:42:32;26.02;;;15.80;;
73951;SDS011;62304;47.662;18.324;2022-10-19T03:45:35;43.47;;;22.03;;
73951;SDS011;62304;47.662;18.324;2022-10-19T03:48:37;84.20;;;35.55;;
73951;SDS011;62304;47.662;18.324;2022-10-19T03:51:40;57.60;;;27.60;;
73951;SDS011;62304;47.662;18.324;2022-10-19T03:54:43;72.22;;;30.60;;
73951;SDS011;62304;47.662;18.324;2022-10-19T03:57:47;57.88;;;25.73;;
73951;SDS011;62304;47.662;18.324;2022-10-19T04:00:50;42.63;;;22.53;;
73951;SDS011;62304;47.662;18.324;2022-10-19T04:03:54;37.83;;;21.52;;
73951;SDS011;62304;47.662;18.324;2022-10-19T04:06:58;36.80;;;19.90;;
73951;SDS011;62304;47.662;18.324;2022-10-19T04:10:01;51.70;;;25.48;;
73951;SDS011;62304;47.662;18.324;2022-10-19T04:13:04;111.93;;;47.03;;
73951;SDS011;62304;47.662;18.324;2022-10-19T04:16:08;120.40;;;49.10;;
73951;SDS011;62304;47.662;18.324;2022-10-19T04:19:16;106.70;;;46.53;;
73951;SDS011;62304;47.662;18.324;2022-10-19T04:22:19;83.97;;;37.80;;
73951;SDS011;62304;47.662;18.324;2022-10-19T04:25:21;65.20;;;31.50;;
73951;SDS011;62304;47.662;18.324;2022-10-19T04:28:26;42.88;;;22.70;;
73951;SDS011;62304;47.662;18.324;2022-10-19T04:31:29;40.43;;;21.70;;
73951;SDS011;62304;47.662;18.324;2022-10-19T04:34:32;39.53;;;21.77;;
73951;SDS011;62304;47.662;18.324;2022-10-19T04:37:40;44.60;;;21.77;;
73951;SDS011;62304;47.662;18.324;2022-10-19T04:40:43;39.05;;;21.35;;
73951;SDS011;62304;47.662;18.324;2022-10-19T04:43:46;36.60;;;20.00;;
73951;SDS011;62304;47.662;18.324;2022-10-19T04:46:49;35.77;;;19.13;;
73951;SDS011;62304;47.662;18.324;2022-10-19T04:49:52;36.58;;;19.87;;
73951;SDS011;62304;47.662;18.324;2022-10-19T04:52:55;36.65;;;20.42;;
73951;SDS011;62304;47.662;18.324;2022-10-19T04:55:58;35.25;;;19.55;;
73951;SDS011;62304;47.662;18.324;2022-10-19T04:59:01;35.40;;;20.30;;
73951;SDS011;62304;47.662;18.324;2022-10-19T05:02:04;37.87;;;20.80;;
73951;SDS011;62304;47.662;18.324;2022-10-19T05:05:07;35.88;;;21.45;;
73951;SDS011;62304;47.662;18.324;2022-10-19T05:08:10;38.60;;;21.85;;
73951;SDS011;62304;47.662;18.324;2022-10-19T05:11:13;40.17;;;22.83;;
73951;SDS011;62304;47.662;18.324;2022-10-19T05:14:16;38.75;;;21.95;;
73951;SDS011;62304;47.662;18.324;2022-10-19T05:17:21;37.03;;;21.60;;
73951;SDS011;62304;47.662;18.324;2022-10-19T05:20:25;39.15;;;22.65;;
73951;SDS011;62304;47.662;18.324;2022-10-19T05:23:28;45.67;;;23.65;;
73951;SDS011;62304;47.662;18.324;2022-10-19T05:26:36;36.15;;;20.67;;
73951;SDS011;62304;47.662;18.324;2022-10-19T05:29:39;39.03;;;19.90;;
73951;SDS011;62304;47.662;18.324;2022-10-19T05:32:43;40.47;;;21.43;;
73951;SDS011;62304;47.662;18.324;2022-10-19T05:35:47;39.97;;;21.27;;
73951;SDS011;62304;47.662;18.324;2022-10-19T05:38:50;37.53;;;20.52;;
73951;SDS011;62304;47.662;18.324;2022-10-19T05:41:54;41.92;;;21.67;;
73951;SDS011;62304;47.662;18.324;2022-10-19T05:44:57;46.13;;;22.67;;
73951;SDS011;62304;47.662;18.324;2022-10-19T05:48:01;46.93;;;22.03;;
73951;SDS011;62304;47.662;18.324;2022-10-19T05:51:05;51.60;;;21.40;;
73951;SDS011;62304;47.662;18.324;2022-10-19T05:54:13;45.15;;;21.67;;
73951;SDS011;62304;47.662;18.324;2022-10-19T05:57:16;44.75;;;22.42;;
73951;SDS011;62304;47.662;18.324;2022-10-19T06:00:19;37.95;;;20.80;;
73951;SDS011;62304;47.662;18.324;2022-10-19T06:03:22;40.30;;;22.03;;
73951;SDS011;62304;47.662;18.324;2022-10-19T06:06:26;37.35;;;21.52;;
73951;SDS011;62304;47.662;18.324;2022-10-19T06:09:29;39.67;;;22.00;;
73951;SDS011;62304;47.662;18.324;2022-10-19T06:12:37;90.78;;;40.12;;
73951;SDS011;62304;47.662;18.324;2022-10-19T06:15:40;64.03;;;30.70;;
73951;SDS011;62304;47.662;18.324;2022-10-19T06:18:42;57.47;;;30.20;;
73951;SDS011;62304;47.662;18.324;2022-10-19T06:21:46;49.85;;;26.87;;
73951;SDS011;62304;47.662;18.324;2022-10-19T06:24:51;82.12;;;37.97;;
73951;SDS011;62304;47.662;18.324;2022-10-19T06:27:54;75.60;;;35.08;;
73951;SDS011;62304;47.662;18.324;2022-10-19T06:30:58;63.87;;;31.42;;
73951;SDS011;62304;47.662;18.324;2022-10-19T06:34:02;51.57;;;25.97;;
73951;SDS011;62304;47.662;18.324;2022-10-19T06:37:05;40.83;;;21.83;;
73951;SDS011;62304;47.662;18.324;2022-10-19T06:40:09;38.10;;;21.42;;
73951;SDS011;62304;47.662;18.324;2022-10-19T06:43:12;39.60;;;20.88;;
73951;SDS011;62304;47.662;18.324;2022-10-19T06:46:15;30.73;;;18.15;;
73951;SDS011;62304;47.662;18.324;2022-10-19T06:49:24;30.23;;;17.43;;
73951;SDS011;62304;47.662;18.324;2022-10-19T06:52:26;30.92;;;17.23;;
73951;SDS011;62304;47.662;18.324;2022-10-19T06:55:29;31.35;;;16.48;;
73951;SDS011;62304;47.662;18.324;2022-10-19T06:58:36;27.52;;;15.90;;
73951;SDS011;62304;47.662;18.324;2022-10-19T07:01:39;25.65;;;14.63;;
73951;SDS011;62304;47.662;18.324;2022-10-19T07:04:42;24.03;;;13.40;;
73951;SDS011;62304;47.662;18.324;2022-10-19T07:07:45;28.92;;;14.63;;
73951;SDS011;62304;47.662;18.324;2022-10-19T07:10:48;22.67;;;13.25;;
73951;SDS011;62304;47.662;18.324;2022-10-19T07:13:55;22.92;;;13.10;;
73951;SDS011;62304;47.662;18.324;2022-10-19T07:16:58;20.80;;;11.93;;
73951;SDS011;62304;47.662;18.324;2022-10-19T07:20:00;22.50;;;11.97;;
73951;SDS011;62304;47.662;18.324;2022-10-19T07:23:06;21.75;;;11.48;;
73951;SDS011;62304;47.662;18.324;2022-10-19T07:26:11;21.80;;;12.10;;
73951;SDS011;62304;47.662;18.324;2022-10-19T07:29:18;19.25;;;11.40;;
73951;SDS011;62304;47.662;18.324;2022-10-19T07:32:21;20.37;;;11.98;;
73951;SDS011;62304;47.662;18.324;2022-10-19T07:35:24;21.13;;;11.83;;
73951;SDS011;62304;47.662;18.324;2022-10-19T07:38:26;23.10;;;11.40;;
73951;SDS011;62304;47.662;18.324;2022-10-19T07:41:31;18.25;;;9.63;;
73951;SDS011;62304;47.662;18.324;2022-10-19T07:44:35;17.60;;;8.80;;
73951;SDS011;62304;47.662;18.324;2022-10-19T07:47:38;14.35;;;8.40;;
73951;SDS011;62304;47.662;18.324;2022-10-19T07:50:45;12.70;;;7.17;;
73951;SDS011;62304;47.662;18.324;2022-10-19T07:53:49;13.82;;;6.93;;
73951;SDS011;62304;47.662;18.324;2022-10-19T07:56:52;14.18;;;6.78;;
73951;SDS011;62304;47.662;18.324;2022-10-19T07:59:55;12.30;;;6.32;;
73951;SDS011;62304;47.662;18.324;2022-10-19T08:02:58;11.73;;;6.60;;
73951;SDS011;62304;47.662;18.324;2022-10-19T08:06:21;10.93;;;6.37;;
73951;SDS011;62304;47.662;18.324;2022-10-19T08:09:25;12.05;;;5.80;;
73951;SDS011;62304;47.662;18.324;2022-10-19T08:12:48;11.23;;;5.30;;
73951;SDS011;62304;47.662;18.324;2022-10-19T08:15:51;9.55;;;5.45;;
73951;SDS011;62304;47.662;18.324;2022-10-19T08:18:58;10.38;;;4.55;;
73951;SDS011;62304;47.662;18.324;2022-10-19T08:22:02;11.83;;;4.23;;
73951;SDS011;62304;47.662;18.324;2022-10-19T08:25:05;7.72;;;4.18;;
73951;SDS011;62304;47.662;18.324;2022-10-19T08:28:08;8.05;;;4.18;;
73951;SDS011;62304;47.662;18.324;2022-10-19T08:31:12;7.70;;;3.70;;
73951;SDS011;62304;47.662;18.324;2022-10-19T08:34:20;10.00;;;4.18;;
73951;SDS011;62304;47.662;18.324;2022-10-19T08:37:23;8.10;;;3.40;;
73951;SDS011;62304;47.662;18.324;2022-10-19T08:40:45;8.75;;;3.30;;
73951;SDS011;62304;47.662;18.324;2022-10-19T08:47:10;7.03;;;3.42;;
73951;SDS011;62304;47.662;18.324;2022-10-19T08:50:29;7.18;;;3.33;;
73951;SDS011;62304;47.662;18.324;2022-10-19T08:53:37;10.50;;;2.77;;
73951;SDS011;62304;47.662;18.324;2022-10-19T09:03:45;5.75;;;2.50;;
73951;SDS011;62304;47.662;18.324;2022-10-19T09:13:16;8.05;;;3.05;;
73951;SDS011;62304;47.662;18.324;2022-10-19T09:16:19;5.78;;;2.80;;
73951;SDS011;62304;47.662;18.324;2022-10-19T09:19:25;6.87;;;2.95;;
73951;SDS011;62304;47.662;18.324;2022-10-19T09:22:32;5.25;;;2.92;;
73951;SDS011;62304;47.662;18.324;2022-10-19T09:25:37;6.83;;;2.83;;
73951;SDS011;62304;47.662;18.324;2022-10-19T09:31:54;8.20;;;2.62;;
73951;SDS011;62304;47.662;18.324;2022-10-19T09:35:27;6.47;;;2.45;;
73951;SDS011;62304;47.662;18.324;2022-10-19T09:38:31;4.97;;;2.25;;
73951;SDS011;62304;47.662;18.324;2022-10-19T09:41:34;5.60;;;2.03;;
73951;SDS011;62304;47.662;18.324;2022-10-19T09:44:37;6.75;;;2.60;;
73951;SDS011;62304;47.662;18.324;2022-10-19T09:47:41;4.10;;;2.15;;
73951;SDS011;62304;47.662;18.324;2022-10-19T09:50:50;4.25;;;2.10;;
73951;SDS011;62304;47.662;18.324;2022-10-19T09:54:00;5.57;;;2.10;;
73951;SDS011;62304;47.662;18.324;2022-10-19T09:57:03;4.53;;;2.10;;
73951;SDS011;62304;47.662;18.324;2022-10-19T10:00:16;6.45;;;2.35;;
73951;SDS011;62304;47.662;18.324;2022-10-19T10:03:32;3.62;;;2.03;;
73951;SDS011;62304;47.662;18.324;2022-10-19T10:06:38;3.95;;;1.80;;
73951;SDS011;62304;47.662;18.324;2022-10-19T10:09:42;5.53;;;1.80;;
73951;SDS011;62304;47.662;18.324;2022-10-19T10:12:46;6.70;;;1.90;;
73951;SDS011;62304;47.662;18.324;2022-10-19T10:16:00;6.68;;;2.00;;
73951;SDS011;62304;47.662;18.324;2022-10-19T10:19:09;6.80;;;2.08;;
73951;SDS011;62304;47.662;18.324;2022-10-19T10:22:23;5.43;;;1.90;;
73951;SDS011;62304;47.662;18.324;2022-10-19T10:25:30;4.10;;;2.00;;
73951;SDS011;62304;47.662;18.324;2022-10-19T10:28:36;4.70;;;2.00;;
73951;SDS011;62304;47.662;18.324;2022-10-19T10:31:58;4.22;;;2.40;;
73951;SDS011;62304;47.662;18.324;2022-10-19T10:35:05;5.30;;;2.40;;
73951;SDS011;62304;47.662;18.324;2022-10-19T10:38:20;4.93;;;2.15;;
73951;SDS011;62304;47.662;18.324;2022-10-19T10:41:26;4.00;;;2.37;;
73951;SDS011;62304;47.662;18.324;2022-10-19T10:44:30;5.47;;;2.20;;
73951;SDS011;62304;47.662;18.324;2022-10-19T10:47:37;4.03;;;2.28;;
73951;SDS011;62304;47.662;18.324;2022-10-19T10:50:42;4.25;;;2.53;;
73951;SDS011;62304;47.662;18.324;2022-10-19T10:53:46;7.78;;;2.30;;
73951;SDS011;62304;47.662;18.324;2022-10-19T11:00:19;4.53;;;2.40;;
73951;SDS011;62304;47.662;18.324;2022-10-19T11:03:24;7.28;;;2.53;;
73951;SDS011;62304;47.662;18.324;2022-10-19T11:06:33;9.43;;;3.08;;
73951;SDS011;62304;47.662;18.324;2022-10-19T11:09:52;5.55;;;2.12;;
73951;SDS011;62304;47.662;18.324;2022-10-19T11:13:11;9.45;;;2.67;;
73951;SDS011;62304;47.662;18.324;2022-10-19T11:16:24;6.67;;;2.73;;
73951;SDS011;62304;47.662;18.324;2022-10-19T11:19:36;9.07;;;3.47;;
73951;SDS011;62304;47.662;18.324;2022-10-19T11:22:48;13.88;;;3.30;;
73951;SDS011;62304;47.662;18.324;2022-10-19T11:40:12;6.07;;;3.30;;
73951;SDS011;62304;47.662;18.324;2022-10-19T11:53:41;8.85;;;3.50;;
73951;SDS011;62304;47.662;18.324;2022-10-19T11:57:12;8.60;;;3.30;;
73951;SDS011;62304;47.662;18.324;2022-10-19T12:00:20;10.48;;;3.80;;
73951;SDS011;62304;47.662;18.324;2022-10-19T12:07:11;13.83;;;3.57;;
73951;SDS011;62304;47.662;18.324;2022-10-19T12:10:36;9.80;;;3.33;;
73951;SDS011;62304;47.662;18.324;2022-10-19T12:13:51;6.68;;;3.15;;
73951;SDS011;62304;47.662;18.324;2022-10-19T12:16:59;13.02;;;3.10;;
73951;SDS011;62304;47.662;18.324;2022-10-19T12:23:29;5.37;;;2.83;;
73951;SDS011;62304;47.662;18.324;2022-10-19T12:26:37;7.18;;;2.97;;
73951;SDS011;62304;47.662;18.324;2022-10-19T12:29:45;5.37;;;2.85;;
73951;SDS011;62304;47.662;18.324;2022-10-19T12:43:06;10.35;;;3.72;;
73951;SDS011;62304;47.662;18.324;2022-10-19T12:46:36;8.20;;;3.55;;
73951;SDS011;62304;47.662;18.324;2022-10-19T12:49:53;6.97;;;3.25;;
73951;SDS011;62304;47.662;18.324;2022-10-19T12:52:57;7.00;;;3.17;;
73951;SDS011;62304;47.662;18.324;2022-10-19T12:56:07;6.63;;;3.43;;
73951;SDS011;62304;47.662;18.324;2022-10-19T12:59:26;5.45;;;3.30;;
73951;SDS011;62304;47.662;18.324;2022-10-19T13:02:33;7.68;;;3.25;;
73951;SDS011;62304;47.662;18.324;2022-10-19T13:05:38;5.85;;;3.05;;
73951;SDS011;62304;47.662;18.324;2022-10-19T13:08:53;8.40;;;3.50;;
73951;SDS011;62304;47.662;18.324;2022-10-19T13:31:37;9.48;;;3.45;;
73951;SDS011;62304;47.662;18.324;2022-10-19T13:34:40;7.10;;;3.53;;
73951;SDS011;62304;47.662;18.324;2022-10-19T13:37:43;8.05;;;3.55;;
73951;SDS011;62304;47.662;18.324;2022-10-19T13:50:30;7.12;;;4.35;;
73951;SDS011;62304;47.662;18.324;2022-10-19T13:54:00;6.90;;;4.25;;
73951;SDS011;62304;47.662;18.324;2022-10-19T13:57:22;7.60;;;4.15;;
73951;SDS011;62304;47.662;18.324;2022-10-19T14:00:59;11.63;;;4.50;;
73951;SDS011;62304;47.662;18.324;2022-10-19T14:07:34;10.45;;;3.47;;
73951;SDS011;62304;47.662;18.324;2022-10-19T14:10:45;10.15;;;3.70;;
73951;SDS011;62304;47.662;18.324;2022-10-19T14:14:07;8.75;;;3.47;;
73951;SDS011;62304;47.662;18.324;2022-10-19T14:17:17;6.43;;;3.33;;
73951;SDS011;62304;47.662;18.324;2022-10-19T14:20:36;5.82;;;3.60;;
73951;SDS011;62304;47.662;18.324;2022-10-19T14:23:40;9.35;;;3.60;;
73951;SDS011;62304;47.662;18.324;2022-10-19T14:26:43;6.30;;;3.60;;
73951;SDS011;62304;47.662;18.324;2022-10-19T14:29:48;9.35;;;3.85;;
73951;SDS011;62304;47.662;18.324;2022-10-19T14:32:53;8.83;;;4.00;;
73951;SDS011;62304;47.662;18.324;2022-10-19T14:36:04;8.65;;;3.83;;
73951;SDS011;62304;47.662;18.324;2022-10-19T14:39:10;11.00;;;4.10;;
73951;SDS011;62304;47.662;18.324;2022-10-19T14:42:39;8.68;;;3.80;;
73951;SDS011;62304;47.662;18.324;2022-10-19T14:49:08;8.77;;;4.13;;
73951;SDS011;62304;47.662;18.324;2022-10-19T14:52:14;5.57;;;2.90;;
73951;SDS011;62304;47.662;18.324;2022-10-19T14:55:27;5.78;;;3.47;;
73951;SDS011;62304;47.662;18.324;2022-10-19T14:58:47;6.72;;;2.67;;
73951;SDS011;62304;47.662;18.324;2022-10-19T15:02:49;9.38;;;3.20;;
73951;SDS011;62304;47.662;18.324;2022-10-19T15:05:32;9.73;;;3.30;;
73951;SDS011;62304;47.662;18.324;2022-10-19T15:08:39;13.73;;;3.28;;
73951;SDS011;62304;47.662;18.324;2022-10-19T15:11:50;7.18;;;2.60;;
73951;SDS011;62304;47.662;18.324;2022-10-19T15:14:55;6.40;;;2.90;;
73951;SDS011;62304;47.662;18.324;2022-10-19T15:21:12;7.10;;;2.80;;
73951;SDS011;62304;47.662;18.324;2022-10-19T15:24:26;6.40;;;3.28;;
73951;SDS011;62304;47.662;18.324;2022-10-19T15:27:33;8.07;;;3.30;;
73951;SDS011;62304;47.662;18.324;2022-10-19T15:30:37;5.25;;;2.60;;
73951;SDS011;62304;47.662;18.324;2022-10-19T15:33:44;6.47;;;2.90;;
73951;SDS011;62304;47.662;18.324;2022-10-19T15:36:54;10.50;;;2.97;;
73951;SDS011;62304;47.662;18.324;2022-10-19T15:39:59;6.20;;;2.92;;
73951;SDS011;62304;47.662;18.324;2022-10-19T15:49:50;6.20;;;3.05;;
73951;SDS011;62304;47.662;18.324;2022-10-19T15:52:58;5.37;;;3.00;;
73951;SDS011;62304;47.662;18.324;2022-10-19T15:56:00;7.32;;;2.58;;
73951;SDS011;62304;47.662;18.324;2022-10-19T15:59:13;5.90;;;2.78;;
73951;SDS011;62304;47.662;18.324;2022-10-19T16:02:17;7.62;;;3.17;;
73951;SDS011;62304;47.662;18.324;2022-10-19T16:05:21;8.48;;;3.50;;
73951;SDS011;62304;47.662;18.324;2022-10-19T16:08:26;5.87;;;3.50;;
73951;SDS011;62304;47.662;18.324;2022-10-19T16:11:29;8.88;;;4.10;;
73951;SDS011;62304;47.662;18.324;2022-10-19T16:14:34;9.15;;;4.25;;
73951;SDS011;62304;47.662;18.324;2022-10-19T16:17:38;8.18;;;5.18;;
73951;SDS011;62304;47.662;18.324;2022-10-19T16:20:41;6.72;;;4.12;;
73951;SDS011;62304;47.662;18.324;2022-10-19T16:23:44;9.43;;;4.37;;
73951;SDS011;62304;47.662;18.324;2022-10-19T16:26:48;9.25;;;4.10;;
73951;SDS011;62304;47.662;18.324;2022-10-19T16:29:50;7.40;;;3.70;;
73951;SDS011;62304;47.662;18.324;2022-10-19T16:32:53;8.27;;;3.15;;
73951;SDS011;62304;47.662;18.324;2022-10-19T16:35:56;8.15;;;3.30;;
73951;SDS011;62304;47.662;18.324;2022-10-19T16:38:59;7.60;;;3.03;;
73951;SDS011;62304;47.662;18.324;2022-10-19T16:42:03;8.25;;;3.15;;
73951;SDS011;62304;47.662;18.324;2022-10-19T16:45:06;6.47;;;3.40;;
73951;SDS011;62304;47.662;18.324;2022-10-19T16:48:12;7.75;;;3.25;;
73951;SDS011;62304;47.662;18.324;2022-10-19T16:51:49;7.60;;;3.28;;
73951;SDS011;62304;47.662;18.324;2022-10-19T16:54:44;8.27;;;3.30;;
73951;SDS011;62304;47.662;18.324;2022-10-19T16:57:47;8.63;;;2.90;;
73951;SDS011;62304;47.662;18.324;2022-10-19T17:00:53;8.48;;;3.00;;
73951;SDS011;62304;47.662;18.324;2022-10-19T17:04:00;8.60;;;3.10;;
73951;SDS011;62304;47.662;18.324;2022-10-19T17:07:04;5.22;;;2.92;;
73951;SDS011;62304;47.662;18.324;2022-10-19T17:10:08;9.07;;;3.00;;
73951;SDS011;62304;47.662;18.324;2022-10-19T17:13:15;5.93;;;3.10;;
73951;SDS011;62304;47.662;18.324;2022-10-19T17:16:18;11.20;;;3.60;;
73951;SDS011;62304;47.662;18.324;2022-10-19T17:19:22;6.68;;;3.40;;
73951;SDS011;62304;47.662;18.324;2022-10-19T17:22:26;6.47;;;3.08;;
73951;SDS011;62304;47.662;18.324;2022-10-19T17:25:30;7.90;;;2.90;;
73951;SDS011;62304;47.662;18.324;2022-10-19T17:28:34;7.57;;;3.30;;
73951;SDS011;62304;47.662;18.324;2022-10-19T17:31:38;8.05;;;3.65;;
73951;SDS011;62304;47.662;18.324;2022-10-19T17:34:42;7.53;;;3.20;;
73951;SDS011;62304;47.662;18.324;2022-10-19T17:37:46;10.35;;;4.40;;
73951;SDS011;62304;47.662;18.324;2022-10-19T17:40:49;8.57;;;3.50;;
73951;SDS011;62304;47.662;18.324;2022-10-19T17:43:52;5.93;;;2.50;;
73951;SDS011;62304;47.662;18.324;2022-10-19T17:46:55;7.25;;;2.80;;
73951;SDS011;62304;47.662;18.324;2022-10-19T17:49:59;9.55;;;3.50;;
73951;SDS011;62304;47.662;18.324;2022-10-19T17:53:05;7.05;;;3.50;;
73951;SDS011;62304;47.662;18.324;2022-10-19T17:56:11;9.83;;;3.50;;
73951;SDS011;62304;47.662;18.324;2022-10-19T17:59:18;6.45;;;3.15;;
73951;SDS011;62304;47.662;18.324;2022-10-19T18:02:36;7.47;;;3.22;;
73951;SDS011;62304;47.662;18.324;2022-10-19T18:05:39;7.93;;;3.00;;
73951;SDS011;62304;47.662;18.324;2022-10-19T18:08:44;7.93;;;3.12;;
73951;SDS011;62304;47.662;18.324;2022-10-19T18:11:50;5.23;;;2.60;;
73951;SDS011;62304;47.662;18.324;2022-10-19T18:14:54;7.85;;;2.90;;
73951;SDS011;62304;47.662;18.324;2022-10-19T18:17:58;7.32;;;2.87;;
73951;SDS011;62304;47.662;18.324;2022-10-19T18:21:05;5.93;;;2.87;;
73951;SDS011;62304;47.662;18.324;2022-10-19T18:24:12;7.43;;;2.85;;
73951;SDS011;62304;47.662;18.324;2022-10-19T18:27:22;7.50;;;2.50;;
73951;SDS011;62304;47.662;18.324;2022-10-19T18:30:25;8.25;;;3.30;;
73951;SDS011;62304;47.662;18.324;2022-10-19T18:33:29;7.30;;;3.72;;
73951;SDS011;62304;47.662;18.324;2022-10-19T18:36:37;8.13;;;2.95;;
73951;SDS011;62304;47.662;18.324;2022-10-19T18:39:40;6.87;;;2.60;;
73951;SDS011;62304;47.662;18.324;2022-10-19T18:42:44;5.97;;;2.30;;
73951;SDS011;62304;47.662;18.324;2022-10-19T18:45:51;8.50;;;2.75;;
73951;SDS011;62304;47.662;18.324;2022-10-19T18:48:56;7.87;;;2.90;;
73951;SDS011;62304;47.662;18.324;2022-10-19T18:51:59;10.07;;;3.47;;
73951;SDS011;62304;47.662;18.324;2022-10-19T18:55:03;9.00;;;3.12;;
73951;SDS011;62304;47.662;18.324;2022-10-19T18:58:08;7.17;;;3.00;;
73951;SDS011;62304;47.662;18.324;2022-10-19T19:04:24;7.37;;;2.80;;
73951;SDS011;62304;47.662;18.324;2022-10-19T19:07:29;5.57;;;2.58;;
73951;SDS011;62304;47.662;18.324;2022-10-19T19:10:33;6.12;;;2.90;;
73951;SDS011;62304;47.662;18.324;2022-10-19T19:13:36;7.27;;;3.00;;
73951;SDS011;62304;47.662;18.324;2022-10-19T19:16:40;7.78;;;3.08;;
73951;SDS011;62304;47.662;18.324;2022-10-19T19:19:45;7.20;;;3.28;;
73951;SDS011;62304;47.662;18.324;2022-10-19T19:22:48;6.65;;;2.80;;
73951;SDS011;62304;47.662;18.324;2022-10-19T19:25:51;6.43;;;2.40;;
73951;SDS011;62304;47.662;18.324;2022-10-19T19:28:58;5.77;;;2.63;;
73951;SDS011;62304;47.662;18.324;2022-10-19T19:32:06;5.10;;;2.40;;
73951;SDS011;62304;47.662;18.324;2022-10-19T19:35:16;7.32;;;2.65;;
73951;SDS011;62304;47.662;18.324;2022-10-19T19:38:20;5.45;;;2.30;;
73951;SDS011;62304;47.662;18.324;2022-10-19T19:41:26;7.82;;;2.25;;
73951;SDS011;62304;47.662;18.324;2022-10-19T19:44:36;7.63;;;2.27;;
73951;SDS011;62304;47.662;18.324;2022-10-19T19:47:39;6.30;;;2.90;;
73951;SDS011;62304;47.662;18.324;2022-10-19T19:50:45;10.13;;;3.97;;
73951;SDS011;62304;47.662;18.324;2022-10-19T19:53:48;6.62;;;3.03;;
73951;SDS011;62304;47.662;18.324;2022-10-19T19:56:52;7.28;;;3.25;;
73951;SDS011;62304;47.662;18.324;2022-10-19T19:59:56;8.37;;;3.17;;
73951;SDS011;62304;47.662;18.324;2022-10-19T20:02:59;11.18;;;4.05;;
73951;SDS011;62304;47.662;18.324;2022-10-19T20:06:03;7.37;;;3.30;;
73951;SDS011;62304;47.662;18.324;2022-10-19T20:09:06;9.05;;;3.40;;
73951;SDS011;62304;47.662;18.324;2022-10-19T20:12:11;8.35;;;4.00;;
73951;SDS011;62304;47.662;18.324;2022-10-19T20:15:15;17.40;;;3.80;;
73951;SDS011;62304;47.662;18.324;2022-10-19T20:18:20;5.97;;;2.85;;
73951;SDS011;62304;47.662;18.324;2022-10-19T20:21:24;8.60;;;3.28;;
73951;SDS011;62304;47.662;18.324;2022-10-19T20:24:29;8.35;;;3.17;;
73951;SDS011;62304;47.662;18.324;2022-10-19T20:27:36;5.72;;;3.03;;